createdAt,value
2022-11-19T00:01:27.566Z,5.00
2022-11-19T00:03:55.180Z,5.00
2022-11-19T00:06:27.507Z,4.90
2022-11-19T00:08:55.129Z,4.90
2022-11-19T00:11:42.934Z,4.90
2022-11-19T00:14:12.684Z,4.80
2022-11-19T00:16:40.477Z,4.80
2022-11-19T00:19:07.674Z,4.70
2022-11-19T00:21:34.513Z,4.70
2022-11-19T00:24:01.412Z,4.60
2022-11-19T00:26:28.414Z,4.60
2022-11-19T00:28:55.590Z,4.60
2022-11-19T00:31:22.458Z,4.60
2022-11-19T00:33:50.839Z,4.60
2022-11-19T00:36:18.065Z,4.60
2022-11-19T00:38:45.013Z,4.60
2022-11-19T00:41:12.205Z,4.60
2022-11-19T00:43:48.500Z,4.60
2022-11-19T00:46:19.915Z,4.60
2022-11-19T00:48:48.524Z,4.60
2022-11-19T00:51:17.256Z,4.60
2022-11-19T00:53:44.384Z,4.60
2022-11-19T00:56:14.821Z,4.60
2022-11-19T00:58:42.073Z,4.60
2022-11-19T01:01:10.609Z,4.60
2022-11-19T01:03:38.690Z,4.50
2022-11-19T01:06:06.780Z,4.50
2022-11-19T01:08:34.095Z,4.60
2022-11-19T01:11:16.873Z,4.50
2022-11-19T01:13:44.290Z,4.50
2022-11-19T01:16:21.619Z,4.50
2022-11-19T01:18:49.659Z,4.50
2022-11-19T01:21:17.986Z,4.50
2022-11-19T01:23:45.691Z,4.40
2022-11-19T01:26:13.607Z,4.40
2022-11-19T01:28:40.998Z,4.40
2022-11-19T01:31:19.084Z,4.50
2022-11-19T01:33:46.584Z,4.40
2022-11-19T01:36:16.169Z,4.50
2022-11-19T01:38:43.297Z,4.60
2022-11-19T01:41:10.767Z,4.60
2022-11-19T01:43:59.047Z,4.60
2022-11-19T01:46:33.151Z,4.60
2022-11-19T01:49:19.050Z,4.60
2022-11-19T01:51:54.796Z,4.60
2022-11-19T01:54:26.428Z,4.60
2022-11-19T01:56:56.542Z,4.60
2022-11-19T01:59:23.919Z,4.60
2022-11-19T02:01:51.018Z,4.60
2022-11-19T02:04:19.124Z,4.60
2022-11-19T02:06:47.578Z,4.60
2022-11-19T02:09:15.039Z,4.60
2022-11-19T02:12:09.664Z,4.70
2022-11-19T02:15:09.903Z,4.70
2022-11-19T02:17:55.193Z,4.70
2022-11-19T02:20:28.131Z,4.70
2022-11-19T02:23:19.977Z,4.80
2022-11-19T02:26:24.475Z,4.70
2022-11-19T02:28:58.585Z,4.70
2022-11-19T02:31:39.399Z,4.70
2022-11-19T02:34:12.780Z,4.70
2022-11-19T02:36:45.846Z,4.70
2022-11-19T02:39:19.078Z,4.70
2022-11-19T02:42:16.819Z,4.70
2022-11-19T02:45:24.440Z,4.70
2022-11-19T02:47:55.586Z,4.80
2022-11-19T02:50:28.221Z,4.70
2022-11-19T02:52:55.490Z,4.80
2022-11-19T02:55:23.177Z,4.80
2022-11-19T02:58:32.540Z,4.80
2022-11-19T03:01:21.146Z,4.80
2022-11-19T03:04:07.754Z,4.90
2022-11-19T03:06:35.264Z,4.80
2022-11-19T03:09:02.955Z,4.90
2022-11-19T03:11:32.060Z,4.90
2022-11-19T03:14:23.687Z,4.90
2022-11-19T03:17:08.003Z,4.90
2022-11-19T03:19:34.865Z,4.90
2022-11-19T03:22:12.808Z,4.90
2022-11-19T03:24:52.224Z,5.00
2022-11-19T03:27:26.699Z,4.90
2022-11-19T03:29:56.967Z,4.90
2022-11-19T03:32:29.548Z,4.90
2022-11-19T03:35:00.925Z,4.90
2022-11-19T03:37:32.262Z,4.90
2022-11-19T03:40:02.020Z,4.90
2022-11-19T03:42:29.745Z,4.90
2022-11-19T03:45:02.806Z,4.90
2022-11-19T03:47:36.729Z,4.90
2022-11-19T03:50:10.847Z,4.80
2022-11-19T03:52:37.745Z,4.90
2022-11-19T03:55:04.836Z,4.90
2022-11-19T03:57:31.632Z,4.80
2022-11-19T03:59:58.517Z,4.80
2022-11-19T04:02:25.354Z,4.90
2022-11-19T04:04:52.209Z,4.90
2022-11-19T04:07:22.587Z,4.90
2022-11-19T04:09:49.744Z,4.90
2022-11-19T04:12:20.049Z,4.90
2022-11-19T04:14:47.378Z,4.90
2022-11-19T04:17:15.327Z,4.90
2022-11-19T04:19:42.476Z,4.90
2022-11-19T04:22:09.373Z,4.90
2022-11-19T04:24:36.364Z,5.00
2022-11-19T04:27:03.615Z,5.00
2022-11-19T04:29:30.410Z,4.90
2022-11-19T04:31:57.248Z,4.90
2022-11-19T04:34:24.176Z,5.00
2022-11-19T04:36:51.225Z,5.00
2022-11-19T04:39:18.471Z,5.00
2022-11-19T04:41:45.807Z,5.00
2022-11-19T04:44:12.656Z,5.00
2022-11-19T04:46:39.470Z,5.00
2022-11-19T04:51:40.974Z,5.10
2022-11-19T04:54:08.886Z,5.00
2022-11-19T04:56:36.938Z,5.00
2022-11-19T04:59:04.580Z,5.10
2022-11-19T05:01:31.875Z,5.00
2022-11-19T05:03:58.870Z,5.10
2022-11-19T05:06:25.845Z,5.10
2022-11-19T05:08:52.690Z,5.10
2022-11-19T05:11:19.535Z,5.10
2022-11-19T05:13:46.445Z,5.00
2022-11-19T05:16:13.448Z,5.00
2022-11-19T05:18:40.263Z,5.00
2022-11-19T05:21:07.351Z,5.00
2022-11-19T05:23:34.191Z,5.00
2022-11-19T05:26:00.995Z,5.00
2022-11-19T05:28:38.112Z,5.00
2022-11-19T05:31:06.789Z,5.00
2022-11-19T05:33:34.470Z,4.90
2022-11-19T05:36:02.253Z,4.90
2022-11-19T05:38:29.262Z,4.90
2022-11-19T05:40:56.070Z,4.90
2022-11-19T05:43:23.708Z,4.90
2022-11-19T05:45:50.540Z,4.90
2022-11-19T05:48:17.378Z,4.80
2022-11-19T05:50:44.184Z,4.80
2022-11-19T05:53:11.170Z,4.80
2022-11-19T05:55:38.078Z,4.80
2022-11-19T05:58:04.878Z,4.80
2022-11-19T06:00:31.722Z,4.80
2022-11-19T06:02:58.685Z,4.80
2022-11-19T06:05:25.622Z,4.80
2022-11-19T06:07:52.497Z,4.80
2022-11-19T06:10:19.402Z,4.90
2022-11-19T06:12:46.435Z,4.90
2022-11-19T06:15:14.595Z,4.90
2022-11-19T06:17:41.997Z,5.00
2022-11-19T06:20:11.351Z,5.00
2022-11-19T06:22:38.944Z,5.10
2022-11-19T06:25:07.865Z,5.10
2022-11-19T06:27:35.205Z,5.10
2022-11-19T06:30:02.681Z,5.10
2022-11-19T06:32:29.543Z,5.10
2022-11-19T06:34:56.574Z,5.10
2022-11-19T06:37:23.651Z,5.10
2022-11-19T06:39:50.480Z,5.10
2022-11-19T06:42:35.731Z,5.10
2022-11-19T06:45:06.086Z,5.10
2022-11-19T06:47:33.459Z,5.10
2022-11-19T06:50:00.384Z,5.10
2022-11-19T06:52:27.386Z,5.10
2022-11-19T06:54:54.368Z,5.10
2022-11-19T06:57:21.378Z,5.10
2022-11-19T06:59:48.242Z,5.10
2022-11-19T07:02:19.021Z,5.10
2022-11-19T07:04:48.229Z,5.10
2022-11-19T07:07:15.236Z,5.20
2022-11-19T07:09:42.157Z,5.20
2022-11-19T07:12:09.515Z,5.20
2022-11-19T07:14:36.405Z,5.30
2022-11-19T07:17:03.730Z,5.40
2022-11-19T07:19:31.090Z,5.40
2022-11-19T07:21:58.141Z,5.50
2022-11-19T07:24:24.950Z,5.50
2022-11-19T07:26:51.885Z,5.60
2022-11-19T07:29:18.900Z,5.60
2022-11-19T07:31:50.308Z,5.60
2022-11-19T07:34:17.886Z,5.60
2022-11-19T07:36:45.642Z,5.70
2022-11-19T07:39:12.954Z,5.70
2022-11-19T07:41:58.383Z,5.70
2022-11-19T07:44:25.403Z,5.80
2022-11-19T07:46:52.289Z,5.80
2022-11-19T07:49:19.927Z,5.80
2022-11-19T07:51:47.371Z,5.80
2022-11-19T07:54:14.847Z,5.80
2022-11-19T07:56:42.280Z,5.80
2022-11-19T07:59:10.153Z,5.80
2022-11-19T08:01:37.238Z,5.90
2022-11-19T08:04:05.329Z,5.90
2022-11-19T08:06:34.478Z,5.90
2022-11-19T08:09:02.856Z,6.00
2022-11-19T08:11:32.647Z,6.00
2022-11-19T08:14:03.240Z,6.00
2022-11-19T08:16:51.027Z,6.10
2022-11-19T08:19:18.830Z,6.10
2022-11-19T08:21:47.133Z,6.20
2022-11-19T08:24:16.449Z,6.20
2022-11-19T08:26:43.936Z,6.30
2022-11-19T08:29:16.213Z,6.30
2022-11-19T08:31:45.726Z,6.30
2022-11-19T08:34:12.670Z,6.40
2022-11-19T08:36:39.720Z,6.40
2022-11-19T08:39:06.910Z,6.50
2022-11-19T08:41:52.900Z,6.50
2022-11-19T08:44:21.056Z,6.70
2022-11-19T08:46:48.260Z,6.70
2022-11-19T08:49:15.058Z,6.80
2022-11-19T08:51:42.160Z,6.80
2022-11-19T08:54:09.262Z,6.90
2022-11-19T08:56:36.176Z,7.10
2022-11-19T08:59:03.624Z,7.10
2022-11-19T09:01:31.202Z,7.10
2022-11-19T09:03:58.354Z,7.10
2022-11-19T09:06:25.370Z,7.00
2022-11-19T09:08:52.263Z,7.00
2022-11-19T09:11:20.769Z,7.10
2022-11-19T09:13:48.149Z,7.10
2022-11-19T09:16:16.927Z,7.10
2022-11-19T09:18:43.886Z,7.10
2022-11-19T09:21:11.915Z,7.10
2022-11-19T09:23:39.014Z,7.20
2022-11-19T09:26:08.565Z,7.30
2022-11-19T09:28:35.703Z,7.30
2022-11-19T09:31:08.062Z,7.30
2022-11-19T09:33:36.624Z,7.40
2022-11-19T09:36:04.103Z,7.40
2022-11-19T09:38:35.283Z,7.40
2022-11-19T09:41:34.166Z,7.40
2022-11-19T09:44:01.010Z,7.40
2022-11-19T09:46:39.943Z,7.30
2022-11-19T09:49:14.309Z,7.20
2022-11-19T09:51:48.933Z,7.20
2022-11-19T09:54:19.583Z,7.20
2022-11-19T09:56:47.696Z,7.30
2022-11-19T09:59:41.134Z,7.40
2022-11-19T10:02:22.877Z,7.30
2022-11-19T10:04:51.298Z,7.40
2022-11-19T10:07:42.379Z,7.40
2022-11-19T10:10:41.724Z,7.40
2022-11-19T10:13:27.208Z,7.40
2022-11-19T10:16:12.274Z,7.40
2022-11-19T10:19:20.798Z,7.50
2022-11-19T10:21:50.674Z,7.40
2022-11-19T10:24:36.164Z,7.40
2022-11-19T10:27:12.456Z,7.40
2022-11-19T10:29:40.451Z,7.40
2022-11-19T10:32:28.477Z,7.40
2022-11-19T10:35:00.659Z,7.40
2022-11-19T10:37:30.829Z,7.50
2022-11-19T10:40:11.490Z,7.50
2022-11-19T10:42:42.384Z,7.60
2022-11-19T10:45:18.623Z,7.50
2022-11-19T10:48:27.518Z,7.50
2022-11-19T10:50:57.162Z,7.50
2022-11-19T10:53:29.358Z,7.60
2022-11-19T10:56:05.395Z,7.60
2022-11-19T10:58:39.266Z,7.60
2022-11-19T11:01:16.250Z,7.70
2022-11-19T11:04:07.563Z,7.70
2022-11-19T11:06:57.854Z,7.70
2022-11-19T11:09:35.359Z,7.80
2022-11-19T11:12:36.355Z,7.80
2022-11-19T11:15:22.861Z,7.90
2022-11-19T11:18:05.097Z,7.90
2022-11-19T11:20:32.468Z,8.00
2022-11-19T11:23:16.043Z,8.00
2022-11-19T11:25:53.338Z,8.00
2022-11-19T11:28:22.495Z,8.00
2022-11-19T11:31:02.676Z,8.00
2022-11-19T11:33:39.606Z,8.10
2022-11-19T11:36:19.651Z,8.00
2022-11-19T11:38:49.377Z,8.00
2022-11-19T11:44:19.965Z,7.90
2022-11-19T11:46:50.009Z,7.80
2022-11-19T11:49:28.671Z,7.80
2022-11-19T11:52:11.577Z,7.80
2022-11-19T11:54:59.629Z,7.90
2022-11-19T11:57:49.842Z,8.00
2022-11-19T12:00:34.344Z,8.20
2022-11-19T12:03:16.308Z,8.50
2022-11-19T12:06:01.142Z,8.70
2022-11-19T12:09:14.053Z,8.90
2022-11-19T12:12:04.191Z,8.90
2022-11-19T12:15:15.542Z,8.90
2022-11-19T12:18:15.904Z,8.90
2022-11-19T12:20:55.629Z,8.80
2022-11-19T12:23:22.474Z,8.80
2022-11-19T12:26:16.584Z,8.70
2022-11-19T12:29:12.400Z,8.60
2022-11-19T12:31:57.234Z,8.70
2022-11-19T12:34:54.524Z,8.90
2022-11-19T12:37:37.271Z,8.90
2022-11-19T12:40:19.384Z,8.80
2022-11-19T12:43:00.319Z,8.90
2022-11-19T12:46:04.620Z,8.90
2022-11-19T12:49:06.780Z,9.00
2022-11-19T12:52:04.488Z,8.80
2022-11-19T12:55:04.416Z,8.50
2022-11-19T12:57:37.088Z,8.50
2022-11-19T13:00:19.389Z,8.70
2022-11-19T13:03:15.756Z,8.90
2022-11-19T13:05:53.626Z,9.10
2022-11-19T13:08:39.501Z,9.20
2022-11-19T13:11:15.961Z,9.20
2022-11-19T13:13:51.651Z,9.20
2022-11-19T13:16:21.418Z,9.20
2022-11-19T13:18:55.805Z,9.10
2022-11-19T13:21:41.846Z,9.10
2022-11-19T13:24:28.907Z,9.20
2022-11-19T13:27:01.133Z,9.30
2022-11-19T13:29:37.485Z,9.30
2022-11-19T13:32:33.306Z,9.20
2022-11-19T13:35:13.330Z,8.90
2022-11-19T13:37:57.990Z,8.70
2022-11-19T13:40:37.241Z,8.50
2022-11-19T13:43:38.240Z,8.30
2022-11-19T13:46:11.124Z,8.20
2022-11-19T13:49:07.299Z,8.20
2022-11-19T13:51:42.575Z,8.20
2022-11-19T13:54:15.381Z,8.30
2022-11-19T13:56:49.114Z,8.30
2022-11-19T13:59:28.239Z,8.30
2022-11-19T14:02:00.284Z,8.20
2022-11-19T14:04:30.319Z,8.10
2022-11-19T14:07:15.867Z,8.10
2022-11-19T14:10:01.282Z,8.00
2022-11-19T14:12:53.366Z,7.90
2022-11-19T14:15:38.745Z,7.90
2022-11-19T14:18:30.187Z,7.80
2022-11-19T14:21:44.397Z,7.80
2022-11-19T14:24:45.075Z,7.80
2022-11-19T14:27:19.765Z,7.70
2022-11-19T14:29:46.622Z,7.70
2022-11-19T14:32:13.444Z,7.70
2022-11-19T14:34:42.063Z,7.70
2022-11-19T14:37:23.091Z,7.60
2022-11-19T14:40:07.614Z,7.50
2022-11-19T14:42:54.477Z,7.50
2022-11-19T14:45:21.654Z,7.50
2022-11-19T14:47:48.472Z,7.40
2022-11-19T14:50:28.179Z,7.40
2022-11-19T14:52:57.722Z,7.40
2022-11-19T14:55:30.464Z,7.40
2022-11-19T14:58:03.392Z,7.40
2022-11-19T15:00:30.163Z,7.50
2022-11-19T15:02:58.143Z,7.50
2022-11-19T15:05:36.015Z,7.50
2022-11-19T15:08:18.219Z,7.50
2022-11-19T15:11:02.168Z,7.40
2022-11-19T15:13:32.971Z,7.30
2022-11-19T15:16:13.247Z,7.30
2022-11-19T15:18:43.055Z,7.30
2022-11-19T15:21:54.788Z,7.20
2022-11-19T15:25:12.562Z,7.10
2022-11-19T15:27:53.775Z,6.90
2022-11-19T15:30:22.116Z,6.80
2022-11-19T15:33:03.960Z,6.80
2022-11-19T15:35:57.574Z,6.70
2022-11-19T15:38:24.938Z,6.60
2022-11-19T15:40:56.069Z,6.50
2022-11-19T15:43:23.017Z,6.40
2022-11-19T15:46:07.222Z,6.40
2022-11-19T15:48:43.001Z,6.30
2022-11-19T15:51:15.026Z,6.30
2022-11-19T15:54:02.082Z,6.20
2022-11-19T15:56:36.737Z,6.20
2022-11-19T15:59:04.785Z,6.00
2022-11-19T16:01:34.781Z,6.00
2022-11-19T16:04:07.695Z,5.90
2022-11-19T16:06:37.301Z,5.80
2022-11-19T16:09:08.694Z,5.80
2022-11-19T16:11:56.656Z,5.70
2022-11-19T16:14:47.593Z,5.80
2022-11-19T16:17:39.728Z,5.80
2022-11-19T16:20:09.894Z,5.80
2022-11-19T16:23:00.355Z,5.90
2022-11-19T16:26:01.400Z,5.90
2022-11-19T16:28:32.982Z,6.00
2022-11-19T16:31:06.035Z,6.00
2022-11-19T16:33:34.134Z,6.00
2022-11-19T16:36:13.644Z,6.00
2022-11-19T16:38:43.704Z,6.00
2022-11-19T16:41:31.562Z,6.00
2022-11-19T16:43:59.053Z,6.00
2022-11-19T16:46:29.686Z,6.10
2022-11-19T16:48:59.216Z,6.10
2022-11-19T16:51:36.402Z,6.10
2022-11-19T16:54:05.441Z,6.10
2022-11-19T16:56:45.025Z,6.10
2022-11-19T16:59:25.900Z,6.10
2022-11-19T17:01:59.878Z,6.10
2022-11-19T17:04:30.073Z,6.10
2022-11-19T17:06:58.465Z,6.10
2022-11-19T17:09:41.669Z,6.10
2022-11-19T17:12:29.589Z,6.10
2022-11-19T17:15:02.148Z,6.10
2022-11-19T17:17:39.953Z,6.10
2022-11-19T17:20:30.574Z,6.10
2022-11-19T17:22:57.901Z,6.10
2022-11-19T17:25:24.787Z,6.10
2022-11-19T17:27:56.901Z,6.10
2022-11-19T17:30:31.711Z,6.00
2022-11-19T17:33:04.530Z,6.00
2022-11-19T17:35:41.742Z,6.00
2022-11-19T17:38:20.925Z,6.00
2022-11-19T17:40:52.378Z,6.00
2022-11-19T17:43:48.607Z,6.00
2022-11-19T17:46:15.477Z,6.00
2022-11-19T17:48:44.465Z,6.00
2022-11-19T17:51:13.295Z,6.00
2022-11-19T17:53:40.888Z,6.00
2022-11-19T17:56:26.664Z,6.00
2022-11-19T17:58:54.761Z,6.00
2022-11-19T18:01:22.476Z,6.00
2022-11-19T18:03:49.653Z,6.00
2022-11-19T18:06:17.734Z,6.00
2022-11-19T18:08:45.200Z,6.00
2022-11-19T18:11:15.339Z,6.00
2022-11-19T18:13:43.172Z,6.00
2022-11-19T18:16:18.349Z,6.00
2022-11-19T18:18:45.463Z,6.00
2022-11-19T18:21:18.287Z,6.00
2022-11-19T18:23:46.256Z,6.00
2022-11-19T18:26:14.742Z,6.00
2022-11-19T18:28:43.788Z,6.00
2022-11-19T18:31:28.888Z,6.00
2022-11-19T18:33:56.687Z,6.00
2022-11-19T18:36:25.183Z,6.00
2022-11-19T18:38:52.983Z,6.00
2022-11-19T18:41:19.947Z,6.00
2022-11-19T18:44:05.755Z,6.00
2022-11-19T18:46:33.071Z,6.00
2022-11-19T18:48:59.917Z,5.90
2022-11-19T18:51:29.420Z,5.90
2022-11-19T18:53:56.229Z,5.90
2022-11-19T18:56:23.089Z,5.90
2022-11-19T18:58:50.146Z,5.90
2022-11-19T19:01:17.357Z,5.90
2022-11-19T19:03:44.817Z,5.90
2022-11-19T19:06:12.357Z,5.80
2022-11-19T19:08:39.267Z,5.80
2022-11-19T19:11:26.075Z,5.80
2022-11-19T19:13:53.081Z,5.80
2022-11-19T19:16:19.904Z,5.80
2022-11-19T19:18:46.749Z,5.80
2022-11-19T19:21:19.202Z,5.80
2022-11-19T19:23:46.671Z,5.80
2022-11-19T19:26:16.170Z,5.80
2022-11-19T19:28:43.869Z,5.80
2022-11-19T19:31:16.446Z,5.80
2022-11-19T19:33:46.378Z,5.80
2022-11-19T19:36:14.352Z,5.80
2022-11-19T19:38:41.849Z,5.80
2022-11-19T19:41:13.471Z,5.70
2022-11-19T19:43:40.377Z,5.70
2022-11-19T19:46:18.244Z,5.70
2022-11-19T19:48:47.859Z,5.70
2022-11-19T19:51:16.512Z,5.60
2022-11-19T19:53:43.967Z,5.60
2022-11-19T19:56:16.773Z,5.60
2022-11-19T19:58:45.110Z,5.60
2022-11-19T20:01:16.324Z,5.60
2022-11-19T20:03:44.524Z,5.60
2022-11-19T20:06:13.499Z,5.60
2022-11-19T20:08:41.207Z,5.60
2022-11-19T20:11:19.902Z,5.60
2022-11-19T20:13:47.748Z,5.60
2022-11-19T20:16:18.680Z,5.60
2022-11-19T20:18:47.170Z,5.60
2022-11-19T20:21:19.763Z,5.60
2022-11-19T20:23:47.472Z,5.60
2022-11-19T20:26:23.148Z,5.70
2022-11-19T20:29:01.481Z,5.60
2022-11-19T20:31:29.416Z,5.60
2022-11-19T20:33:58.938Z,5.60
2022-11-19T20:36:27.671Z,5.60
2022-11-19T20:38:57.447Z,5.60
2022-11-19T20:41:43.405Z,5.60
2022-11-19T20:44:21.783Z,5.60
2022-11-19T20:46:57.097Z,5.60
2022-11-19T20:49:29.774Z,5.60
2022-11-19T20:51:57.203Z,5.70
2022-11-19T20:54:24.979Z,5.60
2022-11-19T20:56:52.997Z,5.60
2022-11-19T20:59:20.644Z,5.60
2022-11-19T21:01:51.017Z,5.60
2022-11-19T21:04:19.113Z,5.60
2022-11-19T21:06:46.500Z,5.60
2022-11-19T21:09:14.792Z,5.60
2022-11-19T21:11:42.341Z,5.50
2022-11-19T21:14:09.211Z,5.50
2022-11-19T21:16:36.079Z,5.50
2022-11-19T21:19:03.462Z,5.50
2022-11-19T21:21:30.312Z,5.50
2022-11-19T21:23:57.601Z,5.50
2022-11-19T21:26:26.605Z,5.50
2022-11-19T21:28:55.862Z,5.50
2022-11-19T21:31:42.509Z,5.50
2022-11-19T21:34:09.396Z,5.50
2022-11-19T21:36:37.041Z,5.50
2022-11-19T21:39:05.492Z,5.50
2022-11-19T21:41:32.976Z,5.50
2022-11-19T21:44:00.150Z,5.50
2022-11-19T21:46:26.986Z,5.50
2022-11-19T21:48:54.027Z,5.50
2022-11-19T21:51:24.581Z,5.50
2022-11-19T21:53:54.775Z,5.50
2022-11-19T21:56:21.686Z,5.50
2022-11-19T21:58:48.567Z,5.40
2022-11-19T22:01:15.590Z,5.40
2022-11-19T22:03:42.457Z,5.40
2022-11-19T22:06:10.898Z,5.40
2022-11-19T22:08:40.476Z,5.40
2022-11-19T22:11:27.666Z,5.30
2022-11-19T22:13:56.073Z,5.30
2022-11-19T22:16:23.623Z,5.30
2022-11-19T22:18:50.555Z,5.30
2022-11-19T22:21:17.427Z,5.30
2022-11-19T22:23:44.308Z,5.30
2022-11-19T22:26:12.715Z,5.30
2022-11-19T22:28:40.189Z,5.30
2022-11-19T22:31:07.137Z,5.30
2022-11-19T22:33:36.583Z,5.20
2022-11-19T22:36:09.770Z,5.20
2022-11-19T22:38:38.209Z,5.20
2022-11-19T22:41:08.177Z,5.20
2022-11-19T22:43:36.086Z,5.20
2022-11-19T22:46:03.443Z,5.20
2022-11-19T22:48:33.769Z,5.20
2022-11-19T22:51:12.842Z,5.20
2022-11-19T22:53:40.029Z,5.20
2022-11-19T22:56:09.884Z,5.10
2022-11-19T22:58:37.761Z,5.10
2022-11-19T23:01:06.350Z,5.10
2022-11-19T23:03:33.537Z,5.10
2022-11-19T23:06:00.355Z,5.10
2022-11-19T23:08:28.899Z,5.10
2022-11-19T23:11:00.134Z,5.10
2022-11-19T23:13:33.326Z,5.10
2022-11-19T23:16:03.046Z,5.10
2022-11-19T23:18:31.990Z,5.10
2022-11-19T23:21:01.884Z,5.10
2022-11-19T23:23:28.740Z,5.00
2022-11-19T23:25:57.393Z,5.00
2022-11-19T23:28:26.055Z,5.00
2022-11-19T23:30:53.604Z,5.00
2022-11-19T23:33:21.549Z,5.00
2022-11-19T23:35:48.651Z,5.00
2022-11-19T23:38:15.743Z,5.00
2022-11-19T23:40:42.588Z,5.00
2022-11-19T23:43:09.757Z,5.00
2022-11-19T23:45:37.050Z,5.00
2022-11-19T23:48:04.567Z,5.00
2022-11-19T23:50:31.978Z,5.00
2022-11-19T23:52:58.810Z,5.00
2022-11-19T23:55:25.582Z,4.90
2022-11-19T23:57:52.394Z,4.90
